createdAt,value
2018-07-15T00:00:58.664Z,8.43
2018-07-15T00:03:26.775Z,8.48
2018-07-15T00:05:54.851Z,7.20
2018-07-15T00:08:23.099Z,7.73
2018-07-15T00:10:51.269Z,8.85
2018-07-15T00:13:19.363Z,7.77
2018-07-15T00:15:47.561Z,7.77
2018-07-15T00:18:16.600Z,10.48
2018-07-15T00:20:44.647Z,7.97
2018-07-15T00:23:12.723Z,7.97
2018-07-15T00:25:40.824Z,9.73
2018-07-15T00:28:08.942Z,7.40
2018-07-15T00:30:37.242Z,8.87
2018-07-15T00:33:06.047Z,8.07
2018-07-15T00:35:34.147Z,8.60
2018-07-15T00:38:02.247Z,8.05
2018-07-15T00:40:30.335Z,8.50
2018-07-15T00:42:58.439Z,8.23
2018-07-15T00:45:26.576Z,10.10
2018-07-15T00:47:55.153Z,7.90
2018-07-15T00:50:23.368Z,8.63
2018-07-15T00:52:51.578Z,8.35
2018-07-15T00:55:19.667Z,9.33
2018-07-15T00:57:47.742Z,8.67
2018-07-15T01:00:21.532Z,8.78
2018-07-15T01:02:49.654Z,9.03
2018-07-15T01:05:17.743Z,8.23
2018-07-15T01:07:46.873Z,8.60
2018-07-15T01:10:14.951Z,9.13
2018-07-15T01:12:43.038Z,8.93
2018-07-15T01:15:11.124Z,9.77
2018-07-15T01:17:39.226Z,8.63
2018-07-15T01:20:08.742Z,9.50
2018-07-15T01:22:37.218Z,9.20
2018-07-15T01:25:05.432Z,8.83
2018-07-15T01:27:33.462Z,8.77
2018-07-15T01:30:01.545Z,9.17
2018-07-15T01:32:29.729Z,9.40
2018-07-15T01:34:57.883Z,10.20
2018-07-15T01:37:25.981Z,9.45
2018-07-15T01:39:54.071Z,9.07
2018-07-15T01:42:22.128Z,9.33
2018-07-15T01:44:50.199Z,9.60
2018-07-15T01:47:18.267Z,9.30
2018-07-15T01:49:47.034Z,9.20
2018-07-15T01:52:15.166Z,9.47
2018-07-15T01:54:43.242Z,9.27
2018-07-15T01:57:11.370Z,9.10
2018-07-15T01:59:39.483Z,9.20
2018-07-15T02:02:07.613Z,8.83
2018-07-15T02:04:36.086Z,10.53
2018-07-15T02:07:04.220Z,10.10
2018-07-15T02:09:32.316Z,9.73
2018-07-15T02:12:00.375Z,10.07
2018-07-15T02:14:28.459Z,10.30
2018-07-15T02:16:56.512Z,9.20
2018-07-15T02:19:24.598Z,9.17
2018-07-15T02:21:52.880Z,9.50
2018-07-15T02:24:21.019Z,9.43
2018-07-15T02:26:49.147Z,9.40
2018-07-15T02:29:17.543Z,9.40
2018-07-15T02:31:45.619Z,9.93
2018-07-15T02:34:13.718Z,9.23
2018-07-15T02:36:41.864Z,9.17
2018-07-15T02:39:11.166Z,10.50
2018-07-15T02:41:39.335Z,10.10
2018-07-15T02:44:07.611Z,9.90
2018-07-15T02:46:36.398Z,9.63
2018-07-15T02:49:04.487Z,9.83
2018-07-15T02:51:39.311Z,9.65
2018-07-15T02:54:07.700Z,10.37
2018-07-15T02:56:35.804Z,10.33
2018-07-15T02:59:03.952Z,9.05
2018-07-15T03:01:32.108Z,9.30
2018-07-15T03:04:00.175Z,9.10
2018-07-15T03:06:28.357Z,9.23
2018-07-15T03:08:56.452Z,9.95
2018-07-15T03:11:24.543Z,10.33
2018-07-15T03:13:52.723Z,9.18
2018-07-15T03:16:20.811Z,10.80
2018-07-15T03:18:48.887Z,8.30
2018-07-15T03:21:17.692Z,9.00
2018-07-15T03:23:45.762Z,9.30
2018-07-15T03:26:13.849Z,10.40
2018-07-15T03:28:42.051Z,9.00
2018-07-15T03:31:11.241Z,9.87
2018-07-15T03:33:39.468Z,8.20
2018-07-15T03:36:07.599Z,9.03
2018-07-15T03:38:35.701Z,10.40
2018-07-15T03:41:03.752Z,10.10
2018-07-15T03:43:31.814Z,10.32
2018-07-15T03:45:59.899Z,10.32
2018-07-15T03:48:28.042Z,10.38
2018-07-15T03:50:56.161Z,9.00
2018-07-15T03:53:24.410Z,10.00
2018-07-15T03:55:52.477Z,10.20
2018-07-15T03:58:20.646Z,10.17
2018-07-15T04:00:48.740Z,9.50
2018-07-15T04:03:17.769Z,9.57
2018-07-15T04:05:45.831Z,9.93
2018-07-15T04:08:14.039Z,9.53
2018-07-15T04:10:42.159Z,10.10
2018-07-15T04:13:10.400Z,9.80
2018-07-15T04:15:38.489Z,9.07
2018-07-15T04:18:07.252Z,10.10
2018-07-15T04:20:36.767Z,11.80
2018-07-15T04:23:06.162Z,10.93
2018-07-15T04:25:35.149Z,8.87
2018-07-15T04:28:04.099Z,10.23
2018-07-15T04:30:32.238Z,9.90
2018-07-15T04:33:00.321Z,9.30
2018-07-15T04:35:28.878Z,9.07
2018-07-15T04:37:56.984Z,9.43
2018-07-15T04:40:25.092Z,9.60
2018-07-15T04:42:53.222Z,9.40
2018-07-15T04:45:21.350Z,9.63
2018-07-15T04:50:39.753Z,9.20
2018-07-15T04:53:07.832Z,10.07
2018-07-15T04:55:35.970Z,10.10
2018-07-15T04:58:04.418Z,12.75
2018-07-15T05:00:33.013Z,10.30
2018-07-15T05:03:01.096Z,9.50
2018-07-15T05:05:29.213Z,10.40
2018-07-15T05:07:57.365Z,9.48
2018-07-15T05:10:25.557Z,9.80
2018-07-15T05:12:53.648Z,9.63
2018-07-15T05:15:22.015Z,10.10
2018-07-15T05:17:50.118Z,10.63
2018-07-15T05:20:18.286Z,9.95
2018-07-15T05:22:46.484Z,10.28
2018-07-15T05:25:15.027Z,9.63
2018-07-15T05:27:43.126Z,9.83
2018-07-15T05:30:11.278Z,11.40
2018-07-15T05:32:39.391Z,10.10
2018-07-15T05:35:07.937Z,9.47
2018-07-15T05:37:36.123Z,10.30
2018-07-15T05:40:04.349Z,9.87
2018-07-15T05:42:32.447Z,9.53
2018-07-15T05:45:00.541Z,9.65
2018-07-15T05:47:28.618Z,9.58
2018-07-15T05:49:56.693Z,10.05
2018-07-15T05:52:24.779Z,9.57
2018-07-15T05:54:52.906Z,9.28
2018-07-15T05:57:21.018Z,9.00
2018-07-15T05:59:49.735Z,8.63
2018-07-15T06:02:18.671Z,10.18
2018-07-15T06:04:46.957Z,9.37
2018-07-15T06:07:15.100Z,9.87
2018-07-15T06:09:43.316Z,9.17
2018-07-15T06:12:11.423Z,8.68
2018-07-15T06:14:40.012Z,9.78
2018-07-15T06:17:08.275Z,9.30
2018-07-15T06:19:36.379Z,9.33
2018-07-15T06:22:04.798Z,9.80
2018-07-15T06:24:32.913Z,9.33
2018-07-15T06:27:01.027Z,9.07
2018-07-15T06:29:29.214Z,9.90
2018-07-15T06:31:57.415Z,8.43
2018-07-15T06:34:25.704Z,10.00
2018-07-15T06:36:53.962Z,9.10
2018-07-15T06:39:22.102Z,11.80
2018-07-15T06:41:50.346Z,9.30
2018-07-15T06:44:19.496Z,8.87
2018-07-15T06:46:47.680Z,9.43
2018-07-15T06:49:15.867Z,8.77
2018-07-15T06:51:43.929Z,8.40
2018-07-15T06:54:12.006Z,8.67
2018-07-15T06:56:40.131Z,9.50
2018-07-15T06:59:08.258Z,8.57
2018-07-15T07:01:36.432Z,8.67
2018-07-15T07:04:04.580Z,8.83
2018-07-15T07:06:32.704Z,8.10
2018-07-15T07:09:00.860Z,8.30
2018-07-15T07:11:28.992Z,8.20
2018-07-15T07:13:57.066Z,8.78
2018-07-15T07:16:26.256Z,8.33
2018-07-15T07:18:54.713Z,9.07
2018-07-15T07:21:22.809Z,8.13
2018-07-15T07:23:51.084Z,8.33
2018-07-15T07:26:20.117Z,7.90
2018-07-15T07:28:49.020Z,7.83
2018-07-15T07:31:17.233Z,7.40
2018-07-15T07:33:45.463Z,8.63
2018-07-15T07:36:13.698Z,8.90
2018-07-15T07:38:41.901Z,8.17
2018-07-15T07:41:09.973Z,7.93
2018-07-15T07:43:38.254Z,7.70
2018-07-15T07:46:06.325Z,7.70
2018-07-15T07:48:34.603Z,7.73
2018-07-15T07:51:02.730Z,7.43
2018-07-15T07:53:30.959Z,7.63
2018-07-15T07:55:59.123Z,7.37
2018-07-15T07:58:27.259Z,7.33
2018-07-15T08:00:55.583Z,6.55
2018-07-15T08:03:23.807Z,6.90
2018-07-15T08:05:51.908Z,6.90
2018-07-15T08:08:20.029Z,6.43
2018-07-15T08:10:48.174Z,8.13
2018-07-15T08:13:16.294Z,8.00
2018-07-15T08:15:44.355Z,6.20
2018-07-15T08:18:12.529Z,6.50
2018-07-15T08:20:40.627Z,6.80
2018-07-15T08:23:08.790Z,6.20
2018-07-15T08:25:36.865Z,6.70
2018-07-15T08:28:04.941Z,6.78
2018-07-15T08:30:44.578Z,6.90
2018-07-15T08:33:12.693Z,6.70
2018-07-15T08:35:40.762Z,6.57
2018-07-15T08:38:08.920Z,6.50
2018-07-15T08:40:37.061Z,6.73
2018-07-15T08:43:05.273Z,6.28
2018-07-15T08:45:33.427Z,7.58
2018-07-15T08:48:01.638Z,6.78
2018-07-15T08:50:29.724Z,6.47
2018-07-15T08:52:57.837Z,6.40
2018-07-15T08:55:25.963Z,7.00
2018-07-15T08:57:54.346Z,6.80
2018-07-15T09:00:22.410Z,6.90
2018-07-15T09:02:50.632Z,8.17
2018-07-15T09:05:19.515Z,6.57
2018-07-15T09:07:47.672Z,6.63
2018-07-15T09:10:15.858Z,7.63
2018-07-15T09:12:44.190Z,7.33
2018-07-15T09:15:12.264Z,7.40
2018-07-15T09:17:40.399Z,6.00
2018-07-15T09:20:08.507Z,6.30
2018-07-15T09:22:36.630Z,7.03
2018-07-15T09:25:04.747Z,7.10
2018-07-15T09:27:33.003Z,6.33
2018-07-15T09:30:01.219Z,7.60
2018-07-15T09:32:29.503Z,7.00
2018-07-15T09:34:57.703Z,8.70
2018-07-15T09:37:25.827Z,7.10
2018-07-15T09:39:53.972Z,6.47
2018-07-15T09:42:22.102Z,7.33
2018-07-15T09:44:50.302Z,7.60
2018-07-15T09:47:18.419Z,6.70
2018-07-15T09:49:46.786Z,6.80
2018-07-15T09:52:14.929Z,6.10
2018-07-15T09:54:43.031Z,7.67
2018-07-15T09:57:11.238Z,7.07
2018-07-15T09:59:39.485Z,6.63
2018-07-15T10:02:08.492Z,6.87
2018-07-15T10:04:36.636Z,6.40
2018-07-15T10:07:05.086Z,11.40
2018-07-15T10:09:33.208Z,7.08
2018-07-15T10:12:01.529Z,5.80
2018-07-15T10:14:29.952Z,6.97
2018-07-15T10:16:58.019Z,6.22
2018-07-15T10:19:26.280Z,6.78
2018-07-15T10:21:54.443Z,6.75
2018-07-15T10:24:22.635Z,6.10
2018-07-15T10:26:50.763Z,6.07
2018-07-15T10:29:20.125Z,5.93
2018-07-15T10:31:48.422Z,5.93
2018-07-15T10:34:16.596Z,5.83
2018-07-15T10:36:44.709Z,9.90
2018-07-15T10:39:13.307Z,9.37
2018-07-15T10:41:41.492Z,5.90
2018-07-15T10:44:09.644Z,5.63
2018-07-15T10:46:38.244Z,6.33
2018-07-15T10:49:06.326Z,5.90
2018-07-15T10:51:34.401Z,6.03
2018-07-15T10:54:02.480Z,5.65
2018-07-15T10:56:30.613Z,6.83
2018-07-15T10:58:58.736Z,5.77
2018-07-15T11:01:26.883Z,5.70
2018-07-15T11:03:54.991Z,5.17
2018-07-15T11:06:23.156Z,5.37
2018-07-15T11:08:51.219Z,5.73
2018-07-15T11:11:20.055Z,6.17
2018-07-15T11:13:48.265Z,16.80
2018-07-15T11:16:16.351Z,12.60
2018-07-15T11:18:44.487Z,6.50
2018-07-15T11:21:12.853Z,6.30
2018-07-15T11:23:41.022Z,6.87
2018-07-15T11:26:09.178Z,9.90
2018-07-15T11:28:37.262Z,6.23
2018-07-15T11:31:05.574Z,6.50
2018-07-15T11:33:33.544Z,4.87
2018-07-15T11:36:01.623Z,8.18
2018-07-15T11:38:36.811Z,6.28
2018-07-15T11:41:05.218Z,8.70
2018-07-15T11:43:33.355Z,6.95
2018-07-15T11:46:01.620Z,6.27
2018-07-15T11:48:29.885Z,6.05
2018-07-15T11:50:58.057Z,5.53
2018-07-15T11:53:26.147Z,5.80
2018-07-15T11:55:54.786Z,5.40
2018-07-15T11:58:22.879Z,8.37
2018-07-15T12:00:51.014Z,5.90
2018-07-15T12:03:20.249Z,5.13
2018-07-15T12:05:48.712Z,5.73
2018-07-15T12:08:16.822Z,5.03
2018-07-15T12:10:45.479Z,5.10
2018-07-15T12:13:18.114Z,5.30
2018-07-15T12:15:47.507Z,4.83
2018-07-15T12:18:16.784Z,5.10
2018-07-15T12:20:45.669Z,5.07
2018-07-15T12:23:14.672Z,4.70
2018-07-15T12:25:43.978Z,5.03
2018-07-15T12:28:13.266Z,4.77
2018-07-15T12:30:42.361Z,4.13
2018-07-15T12:33:20.976Z,4.53
2018-07-15T12:35:58.856Z,4.00
2018-07-15T12:38:28.575Z,4.93
2018-07-15T12:40:58.017Z,3.80
2018-07-15T12:43:27.303Z,4.17
2018-07-15T12:45:57.060Z,3.97
2018-07-15T12:48:25.324Z,4.53
2018-07-15T12:50:53.676Z,4.10
2018-07-15T12:53:22.024Z,4.10
2018-07-15T12:55:50.704Z,4.43
2018-07-15T12:58:19.039Z,4.33
2018-07-15T13:00:47.519Z,4.53
2018-07-15T13:03:16.250Z,4.37
2018-07-15T13:05:44.725Z,4.03
2018-07-15T13:08:13.008Z,3.67
2018-07-15T13:10:41.417Z,3.75
2018-07-15T13:13:10.765Z,3.80
2018-07-15T13:15:39.372Z,4.30
2018-07-15T13:18:07.649Z,4.47
2018-07-15T13:20:36.166Z,4.30
2018-07-15T13:23:04.777Z,4.60
2018-07-15T13:25:33.389Z,4.12
2018-07-15T13:28:01.702Z,4.50
2018-07-15T13:30:29.944Z,4.78
2018-07-15T13:32:58.215Z,5.58
2018-07-15T13:35:26.498Z,4.70
2018-07-15T13:37:54.676Z,4.27
2018-07-15T13:40:22.829Z,4.43
2018-07-15T13:42:51.021Z,4.40
2018-07-15T13:45:19.101Z,5.12
2018-07-15T13:47:47.457Z,3.98
2018-07-15T13:50:15.775Z,4.67
2018-07-15T13:52:44.622Z,3.85
2018-07-15T13:55:12.786Z,3.90
2018-07-15T13:57:41.177Z,3.62
2018-07-15T14:00:10.907Z,3.77
2018-07-15T14:02:40.263Z,3.30
2018-07-15T14:05:08.527Z,3.80
2018-07-15T14:07:36.714Z,4.17
2018-07-15T14:10:04.955Z,3.72
2018-07-15T14:12:33.187Z,9.63
2018-07-15T14:15:01.413Z,5.53
2018-07-15T14:17:29.853Z,6.72
2018-07-15T14:19:58.129Z,3.80
2018-07-15T14:22:26.501Z,4.55
2018-07-15T14:24:54.846Z,4.30
2018-07-15T14:27:22.979Z,4.15
2018-07-15T14:29:51.333Z,4.12
2018-07-15T14:32:23.594Z,3.40
2018-07-15T14:34:51.924Z,3.60
2018-07-15T14:37:20.908Z,4.15
2018-07-15T14:39:49.178Z,3.80
2018-07-15T14:42:17.291Z,3.97
2018-07-15T14:44:45.446Z,4.03
2018-07-15T14:47:13.653Z,3.80
2018-07-15T14:49:41.778Z,4.67
2018-07-15T14:52:10.109Z,5.17
2018-07-15T14:54:38.242Z,4.15
2018-07-15T14:57:06.456Z,5.23
2018-07-15T14:59:34.518Z,4.47
2018-07-15T15:02:02.624Z,3.50
2018-07-15T15:04:30.837Z,3.58
2018-07-15T15:06:58.992Z,4.13
2018-07-15T15:09:27.247Z,4.30
2018-07-15T15:11:55.319Z,4.05
2018-07-15T15:14:23.377Z,4.30
2018-07-15T15:16:51.483Z,4.23
2018-07-15T15:19:19.639Z,4.53
2018-07-15T15:21:47.795Z,5.10
2018-07-15T15:24:15.887Z,4.87
2018-07-15T15:26:44.180Z,6.60
2018-07-15T15:29:12.329Z,5.07
2018-07-15T15:31:40.422Z,5.20
2018-07-15T15:34:09.351Z,6.10
2018-07-15T15:36:37.517Z,10.00
2018-07-15T15:39:06.233Z,6.90
2018-07-15T15:41:34.386Z,7.25
2018-07-15T15:44:02.550Z,6.90
2018-07-15T15:46:30.691Z,7.20
2018-07-15T15:48:58.813Z,7.97
2018-07-15T15:51:26.957Z,7.37
2018-07-15T15:53:55.180Z,6.92
2018-07-15T15:56:23.342Z,6.07
2018-07-15T15:58:51.482Z,5.77
2018-07-15T16:01:19.594Z,5.63
2018-07-15T16:03:47.654Z,6.70
2018-07-15T16:06:15.807Z,7.03
2018-07-15T16:08:43.878Z,6.37
2018-07-15T16:11:12.101Z,6.83
2018-07-15T16:13:40.220Z,6.80
2018-07-15T16:16:08.393Z,6.35
2018-07-15T16:18:36.426Z,7.97
2018-07-15T16:21:04.502Z,7.10
2018-07-15T16:23:32.659Z,6.05
2018-07-15T16:26:00.934Z,7.37
2018-07-15T16:28:29.167Z,6.23
2018-07-15T16:30:57.814Z,6.85
2018-07-15T16:33:25.883Z,7.87
2018-07-15T16:35:53.958Z,6.10
2018-07-15T16:38:22.035Z,6.10
2018-07-15T16:40:51.187Z,4.65
2018-07-15T16:43:19.238Z,4.90
2018-07-15T16:45:47.322Z,4.23
2018-07-15T16:48:15.370Z,3.87
2018-07-15T16:50:43.456Z,5.70
2018-07-15T16:53:11.518Z,4.70
2018-07-15T16:55:39.924Z,4.03
2018-07-15T16:58:08.014Z,5.50
2018-07-15T17:00:36.110Z,5.95
2018-07-15T17:03:04.255Z,6.50
2018-07-15T17:05:32.308Z,6.07
2018-07-15T17:08:00.430Z,4.97
2018-07-15T17:10:28.547Z,5.55
2018-07-15T17:12:56.768Z,5.53
2018-07-15T17:15:25.054Z,5.63
2018-07-15T17:17:53.153Z,5.70
2018-07-15T17:20:21.369Z,5.33
2018-07-15T17:22:49.425Z,5.63
2018-07-15T17:25:17.750Z,5.47
2018-07-15T17:27:45.860Z,5.60
2018-07-15T17:30:13.918Z,5.50
2018-07-15T17:32:42.069Z,6.33
2018-07-15T17:35:10.156Z,6.37
2018-07-15T17:37:38.423Z,6.60
2018-07-15T17:40:06.745Z,6.83
2018-07-15T17:42:34.857Z,6.70
2018-07-15T17:45:03.022Z,6.57
2018-07-15T17:47:31.130Z,6.97
2018-07-15T17:49:59.388Z,6.67
2018-07-15T17:52:27.474Z,6.30
2018-07-15T17:54:55.608Z,6.70
2018-07-15T17:57:23.885Z,5.43
2018-07-15T17:59:52.034Z,6.57
2018-07-15T18:02:20.252Z,7.07
2018-07-15T18:04:48.467Z,7.17
2018-07-15T18:07:16.482Z,6.37
2018-07-15T18:09:45.146Z,6.43
2018-07-15T18:12:13.298Z,6.00
2018-07-15T18:14:41.443Z,5.97
2018-07-15T18:17:09.758Z,8.17
2018-07-15T18:19:37.897Z,8.83
2018-07-15T18:22:06.026Z,8.78
2018-07-15T18:24:34.398Z,7.75
2018-07-15T18:27:02.590Z,7.87
2018-07-15T18:29:31.052Z,6.47
2018-07-15T18:31:59.405Z,7.58
2018-07-15T18:34:27.679Z,6.70
2018-07-15T18:36:56.342Z,4.72
2018-07-15T18:39:24.455Z,5.90
2018-07-15T18:41:52.690Z,5.70
2018-07-15T18:44:21.810Z,6.80
2018-07-15T18:46:50.190Z,8.13
2018-07-15T18:49:18.352Z,6.20
2018-07-15T18:51:46.521Z,6.97
2018-07-15T18:54:14.817Z,8.83
2018-07-15T18:56:42.945Z,7.47
2018-07-15T18:59:11.210Z,5.40
2018-07-15T19:01:39.239Z,4.93
2018-07-15T19:04:07.529Z,5.40
2018-07-15T19:06:35.625Z,4.60
2018-07-15T19:09:04.466Z,5.53
2018-07-15T19:11:32.589Z,4.93
2018-07-15T19:14:00.966Z,6.43
2018-07-15T19:16:29.159Z,6.10
2018-07-15T19:18:57.233Z,5.23
2018-07-15T19:21:25.490Z,4.70
2018-07-15T19:23:53.675Z,5.87
2018-07-15T19:26:21.869Z,4.42
2018-07-15T19:28:49.959Z,5.00
2018-07-15T19:31:18.019Z,5.07
2018-07-15T19:33:46.188Z,4.60
2018-07-15T19:36:14.294Z,4.57
2018-07-15T19:38:42.367Z,4.80
2018-07-15T19:41:10.439Z,4.77
2018-07-15T19:43:38.605Z,5.08
2018-07-15T19:46:06.674Z,13.27
2018-07-15T19:48:34.755Z,14.27
2018-07-15T19:51:02.868Z,5.30
2018-07-15T19:56:25.094Z,5.17
2018-07-15T19:58:53.284Z,5.80
2018-07-15T20:01:22.091Z,5.10
2018-07-15T20:03:50.089Z,5.83
2018-07-15T20:06:18.206Z,5.03
2018-07-15T20:08:46.298Z,5.53
2018-07-15T20:11:14.506Z,5.27
2018-07-15T20:13:42.636Z,5.77
2018-07-15T20:16:10.895Z,5.50
2018-07-15T20:18:39.447Z,5.37
2018-07-15T20:21:07.519Z,4.90
2018-07-15T20:23:35.669Z,4.87
2018-07-15T20:26:03.747Z,4.90
2018-07-15T20:28:31.893Z,9.87
2018-07-15T20:31:00.014Z,24.50
2018-07-15T20:33:28.130Z,5.45
2018-07-15T20:35:56.267Z,5.73
2018-07-15T20:38:24.387Z,5.80
2018-07-15T20:40:54.519Z,5.72
2018-07-15T20:43:22.591Z,6.60
2018-07-15T20:45:50.658Z,5.80
2018-07-15T20:48:19.537Z,6.40
2018-07-15T20:50:47.646Z,6.87
2018-07-15T20:53:15.732Z,6.63
2018-07-15T20:55:44.164Z,6.57
2018-07-15T20:58:12.476Z,7.23
2018-07-15T21:00:40.611Z,6.77
2018-07-15T21:03:08.771Z,6.80
2018-07-15T21:05:37.208Z,6.70
2018-07-15T21:08:06.556Z,6.47
2018-07-15T21:10:34.862Z,7.07
2018-07-15T21:13:03.458Z,6.70
2018-07-15T21:15:31.592Z,6.30
2018-07-15T21:18:00.076Z,5.97
2018-07-15T21:20:28.470Z,5.87
2018-07-15T21:22:56.828Z,6.40
2018-07-15T21:25:25.014Z,7.17
2018-07-15T21:27:53.134Z,7.03
2018-07-15T21:30:22.308Z,6.33
2018-07-15T21:32:50.401Z,6.90
2018-07-15T21:35:18.539Z,7.00
2018-07-15T21:37:46.694Z,15.97
2018-07-15T21:40:15.009Z,7.10
2018-07-15T21:42:43.213Z,6.17
2018-07-15T21:45:11.457Z,6.40
2018-07-15T21:47:39.625Z,6.53
2018-07-15T21:50:07.942Z,7.10
2018-07-15T21:52:36.263Z,6.63
2018-07-15T21:55:04.350Z,6.65
2018-07-15T21:57:32.542Z,6.75
2018-07-15T22:00:00.679Z,5.75
2018-07-15T22:02:28.851Z,5.70
2018-07-15T22:04:57.664Z,6.45
2018-07-15T22:07:37.290Z,5.80
2018-07-15T22:10:18.819Z,5.53
2018-07-15T22:12:47.120Z,6.23
2018-07-15T22:15:15.447Z,6.93
2018-07-15T22:17:43.519Z,6.30
2018-07-15T22:20:11.664Z,7.87
2018-07-15T22:22:39.821Z,10.93
2018-07-15T22:25:07.929Z,8.90
2018-07-15T22:27:36.218Z,5.90
2018-07-15T22:30:04.292Z,5.73
2018-07-15T22:32:32.486Z,6.25
2018-07-15T22:35:00.715Z,8.50
2018-07-15T22:37:28.801Z,7.47
2018-07-15T22:39:56.915Z,7.20
2018-07-15T22:42:25.366Z,6.47
2018-07-15T22:44:53.412Z,6.67
2018-07-15T22:47:21.678Z,6.20
2018-07-15T22:49:49.822Z,6.80
2018-07-15T22:52:17.910Z,7.70
2018-07-15T22:54:46.038Z,9.67
2018-07-15T22:57:14.216Z,9.90
2018-07-15T22:59:42.284Z,6.70
2018-07-15T23:02:10.407Z,6.15
2018-07-15T23:05:55.249Z,6.30
2018-07-15T23:08:24.219Z,6.07
2018-07-15T23:10:52.908Z,5.17
2018-07-15T23:13:21.197Z,5.30
2018-07-15T23:15:49.883Z,4.93
2018-07-15T23:18:17.966Z,5.47
2018-07-15T23:20:46.820Z,5.37
2018-07-15T23:23:15.315Z,4.93
2018-07-15T23:25:43.372Z,5.90
2018-07-15T23:28:12.590Z,5.40
2018-07-15T23:30:42.379Z,5.27
2018-07-15T23:33:11.006Z,5.40
2018-07-15T23:35:39.086Z,6.10
2018-07-15T23:38:07.208Z,5.77
2018-07-15T23:40:35.326Z,5.87
2018-07-15T23:43:03.712Z,5.97
2018-07-15T23:45:32.975Z,5.73
2018-07-15T23:48:01.162Z,5.47
2018-07-15T23:50:29.346Z,6.10
2018-07-15T23:52:57.474Z,5.60
2018-07-15T23:55:25.883Z,5.30
2018-07-15T23:57:54.367Z,5.30
